createdAt,value
2022-08-30T00:01:13.609Z,4.68
2022-08-30T00:03:59.744Z,5.70
2022-08-30T00:06:43.811Z,5.38
2022-08-30T00:09:29.206Z,5.50
2022-08-30T00:12:13.195Z,6.20
2022-08-30T00:14:57.205Z,5.20
2022-08-30T00:17:41.567Z,5.53
2022-08-30T00:20:28.909Z,4.97
2022-08-30T00:23:13.629Z,5.35
2022-08-30T00:25:59.187Z,5.35
2022-08-30T00:28:43.101Z,5.35
2022-08-30T00:31:27.011Z,4.57
2022-08-30T00:34:10.887Z,5.45
2022-08-30T00:36:54.837Z,5.05
2022-08-30T00:39:38.895Z,4.28
2022-08-30T00:42:24.166Z,4.93
2022-08-30T00:45:15.819Z,5.22
2022-08-30T00:48:00.419Z,5.70
2022-08-30T00:50:48.139Z,5.60
2022-08-30T00:53:35.354Z,4.75
2022-08-30T00:56:20.351Z,5.00
2022-08-30T00:59:08.814Z,4.47
2022-08-30T01:01:53.902Z,4.53
2022-08-30T01:04:40.811Z,4.07
2022-08-30T01:07:25.327Z,4.65
2022-08-30T01:10:11.710Z,4.50
2022-08-30T01:12:55.730Z,4.82
2022-08-30T01:15:41.306Z,5.03
2022-08-30T01:18:26.307Z,5.40
2022-08-30T01:21:17.856Z,4.35
2022-08-30T01:24:04.582Z,4.65
2022-08-30T01:26:48.445Z,4.75
2022-08-30T01:29:32.459Z,4.70
2022-08-30T01:32:21.355Z,5.47
2022-08-30T01:35:05.537Z,4.70
2022-08-30T01:37:50.123Z,4.70
2022-08-30T01:40:37.353Z,5.85
2022-08-30T01:43:21.374Z,5.22
2022-08-30T01:46:05.426Z,4.53
2022-08-30T01:48:53.019Z,3.97
2022-08-30T01:51:39.270Z,4.30
2022-08-30T01:54:23.078Z,4.93
2022-08-30T01:57:15.385Z,4.38
2022-08-30T01:59:59.364Z,4.80
2022-08-30T02:02:43.914Z,4.70
2022-08-30T02:05:27.881Z,5.60
2022-08-30T02:08:11.736Z,5.00
2022-08-30T02:10:55.663Z,5.30
2022-08-30T02:13:43.175Z,5.00
2022-08-30T02:16:27.731Z,4.55
2022-08-30T02:19:12.868Z,5.07
2022-08-30T02:21:58.968Z,4.82
2022-08-30T02:24:42.804Z,5.00
2022-08-30T02:27:27.307Z,5.90
2022-08-30T02:30:14.177Z,5.80
2022-08-30T02:32:58.084Z,4.93
2022-08-30T02:35:42.441Z,4.45
2022-08-30T02:38:27.163Z,4.78
2022-08-30T02:41:11.053Z,5.35
2022-08-30T02:43:58.492Z,4.20
2022-08-30T02:46:43.789Z,4.93
2022-08-30T02:49:33.513Z,4.95
2022-08-30T02:52:17.775Z,5.43
2022-08-30T02:55:01.713Z,5.07
2022-08-30T02:57:50.267Z,5.30
2022-08-30T03:00:34.578Z,5.00
2022-08-30T03:03:20.241Z,4.55
2022-08-30T03:06:04.522Z,4.63
2022-08-30T03:08:48.346Z,5.20
2022-08-30T03:11:32.939Z,5.18
2022-08-30T03:14:16.808Z,5.70
2022-08-30T03:17:00.693Z,4.65
2022-08-30T03:19:46.622Z,4.65
2022-08-30T03:22:30.854Z,4.90
2022-08-30T03:25:16.129Z,4.93
2022-08-30T03:27:59.993Z,4.15
2022-08-30T03:30:43.835Z,4.85
2022-08-30T03:33:28.139Z,5.78
2022-08-30T03:36:13.640Z,4.65
2022-08-30T03:38:58.061Z,4.80
2022-08-30T03:41:41.806Z,5.10
2022-08-30T03:44:26.465Z,5.13
2022-08-30T03:47:11.497Z,5.38
2022-08-30T03:49:55.389Z,4.72
2022-08-30T03:52:40.652Z,5.43
2022-08-30T03:55:24.742Z,5.63
2022-08-30T03:58:08.603Z,4.55
2022-08-30T04:00:52.500Z,5.60
2022-08-30T04:03:37.345Z,5.55
2022-08-30T04:06:22.313Z,5.78
2022-08-30T04:09:07.825Z,6.15
2022-08-30T04:11:51.947Z,6.85
2022-08-30T04:14:35.907Z,6.95
2022-08-30T04:17:20.066Z,7.00
2022-08-30T04:20:04.501Z,6.60
2022-08-30T04:22:48.743Z,5.53
2022-08-30T04:25:34.504Z,7.38
2022-08-30T04:28:18.445Z,6.53
2022-08-30T04:31:03.430Z,6.03
2022-08-30T04:33:47.361Z,5.60
2022-08-30T04:36:31.300Z,6.93
2022-08-30T04:39:15.174Z,7.20
2022-08-30T04:42:01.056Z,5.95
2022-08-30T04:44:44.892Z,5.60
2022-08-30T04:47:28.951Z,5.88
2022-08-30T04:50:16.481Z,5.40
2022-08-30T04:53:00.831Z,6.05
2022-08-30T04:55:45.313Z,5.75
2022-08-30T04:58:30.570Z,6.15
2022-08-30T05:01:15.517Z,5.78
2022-08-30T05:04:04.295Z,5.80
2022-08-30T05:06:48.819Z,5.90
2022-08-30T05:09:32.582Z,6.25
2022-08-30T05:12:16.384Z,6.13
2022-08-30T05:15:01.595Z,4.97
2022-08-30T05:17:46.905Z,6.78
2022-08-30T05:20:30.865Z,10.02
2022-08-30T05:23:14.732Z,8.68
2022-08-30T05:25:58.638Z,6.85
2022-08-30T05:28:43.199Z,5.43
2022-08-30T05:31:31.173Z,7.00
2022-08-30T05:34:15.096Z,5.78
2022-08-30T05:36:59.666Z,6.22
2022-08-30T05:39:51.599Z,6.05
2022-08-30T05:42:36.711Z,6.13
2022-08-30T05:45:20.575Z,5.07
2022-08-30T05:48:06.379Z,6.40
2022-08-30T05:50:50.239Z,8.23
2022-08-30T05:53:34.359Z,8.27
2022-08-30T05:56:19.840Z,8.82
2022-08-30T05:59:05.395Z,7.97
2022-08-30T06:01:49.359Z,7.70
2022-08-30T06:04:34.586Z,7.68
2022-08-30T06:07:22.497Z,7.15
2022-08-30T06:10:07.846Z,7.80
2022-08-30T06:12:51.693Z,7.10
2022-08-30T06:15:35.635Z,7.68
2022-08-30T06:18:23.637Z,6.57
2022-08-30T06:21:18.485Z,6.80
2022-08-30T06:24:03.847Z,7.68
2022-08-30T06:26:49.158Z,7.15
2022-08-30T06:29:34.181Z,7.80
2022-08-30T06:32:18.124Z,7.22
2022-08-30T06:35:02.170Z,6.53
2022-08-30T06:37:48.166Z,6.40
2022-08-30T06:40:32.458Z,5.95
2022-08-30T06:43:16.316Z,4.95
2022-08-30T06:46:03.609Z,5.47
2022-08-30T06:48:48.479Z,6.40
2022-08-30T06:51:35.104Z,6.43
2022-08-30T06:54:20.405Z,6.60
2022-08-30T06:57:04.303Z,6.15
2022-08-30T06:59:48.135Z,6.47
2022-08-30T07:02:32.053Z,5.68
2022-08-30T07:05:18.899Z,7.20
2022-08-30T07:08:03.150Z,9.15
2022-08-30T07:10:48.976Z,11.18
2022-08-30T07:13:33.131Z,12.25
2022-08-30T07:16:17.028Z,9.80
2022-08-30T07:19:00.568Z,10.68
2022-08-30T07:21:45.189Z,10.50
2022-08-30T07:24:29.623Z,10.18
2022-08-30T07:27:14.904Z,9.40
2022-08-30T07:29:59.509Z,7.72
2022-08-30T07:32:43.328Z,8.32
2022-08-30T07:35:27.434Z,9.35
2022-08-30T07:38:14.299Z,9.95
2022-08-30T07:40:59.289Z,8.05
2022-08-30T07:43:45.321Z,6.57
2022-08-30T07:46:29.457Z,6.53
2022-08-30T07:49:13.672Z,6.90
2022-08-30T07:51:58.389Z,6.90
2022-08-30T07:54:43.150Z,5.80
2022-08-30T07:57:27.596Z,7.65
2022-08-30T08:00:13.691Z,6.53
2022-08-30T08:02:57.574Z,7.07
2022-08-30T08:05:43.123Z,6.10
2022-08-30T08:08:27.079Z,5.95
2022-08-30T08:11:16.278Z,6.18
2022-08-30T08:14:00.400Z,6.18
2022-08-30T08:16:46.769Z,7.07
2022-08-30T08:19:30.572Z,5.40
2022-08-30T08:22:20.891Z,5.68
2022-08-30T08:25:06.212Z,7.40
2022-08-30T08:27:51.935Z,6.25
2022-08-30T08:30:37.636Z,5.80
2022-08-30T08:33:23.875Z,6.15
2022-08-30T08:36:09.445Z,6.05
2022-08-30T08:38:53.990Z,6.75
2022-08-30T08:41:51.586Z,6.07
2022-08-30T08:44:54.421Z,5.28
2022-08-30T08:47:41.635Z,7.05
2022-08-30T08:50:27.467Z,6.03
2022-08-30T08:53:46.629Z,6.85
2022-08-30T08:56:30.980Z,5.95
2022-08-30T08:59:17.173Z,5.78
2022-08-30T09:02:03.452Z,6.57
2022-08-30T09:04:47.915Z,6.03
2022-08-30T09:07:39.527Z,5.70
2022-08-30T09:10:47.121Z,6.15
2022-08-30T09:13:29.637Z,5.43
2022-08-30T09:16:54.384Z,5.88
2022-08-30T09:19:44.339Z,8.05
2022-08-30T09:22:35.928Z,5.65
2022-08-30T09:25:25.652Z,6.55
2022-08-30T09:28:12.989Z,6.38
2022-08-30T09:31:04.854Z,5.55
2022-08-30T09:33:55.812Z,5.25
2022-08-30T09:36:43.897Z,5.25
2022-08-30T09:39:32.671Z,5.57
2022-08-30T09:42:21.315Z,4.75
2022-08-30T09:45:11.838Z,4.40
2022-08-30T09:47:55.813Z,4.90
2022-08-30T09:50:39.695Z,5.15
2022-08-30T09:53:32.401Z,4.40
2022-08-30T09:56:24.871Z,4.05
2022-08-30T09:59:22.496Z,5.30
2022-08-30T10:02:23.312Z,4.85
2022-08-30T10:05:15.740Z,4.60
2022-08-30T10:08:13.609Z,4.70
2022-08-30T10:11:02.162Z,4.22
2022-08-30T10:14:05.253Z,4.53
2022-08-30T10:16:59.535Z,4.72
2022-08-30T10:19:57.093Z,4.97
2022-08-30T10:22:46.723Z,5.55
2022-08-30T10:25:35.328Z,4.95
2022-08-30T10:28:24.598Z,5.25
2022-08-30T10:31:15.979Z,5.65
2022-08-30T10:34:04.511Z,5.20
2022-08-30T10:36:54.629Z,5.65
2022-08-30T10:39:44.591Z,5.10
2022-08-30T10:42:37.973Z,4.68
2022-08-30T10:45:25.261Z,5.50
2022-08-30T10:48:19.437Z,5.32
2022-08-30T10:51:10.897Z,5.30
2022-08-30T10:54:01.020Z,4.85
2022-08-30T10:56:46.914Z,4.88
2022-08-30T10:59:31.569Z,5.38
2022-08-30T11:02:32.106Z,4.85
2022-08-30T11:05:34.569Z,5.30
2022-08-30T11:08:38.427Z,5.88
2022-08-30T11:11:29.792Z,5.80
2022-08-30T11:14:18.675Z,6.05
2022-08-30T11:17:03.218Z,4.85
2022-08-30T11:19:47.547Z,5.07
2022-08-30T11:22:38.992Z,5.03
2022-08-30T11:25:53.329Z,5.47
2022-08-30T11:29:05.256Z,6.10
2022-08-30T11:31:50.507Z,7.43
2022-08-30T11:34:57.647Z,5.30
2022-08-30T11:37:44.768Z,5.60
2022-08-30T11:40:51.252Z,5.80
2022-08-30T11:43:55.934Z,5.28
2022-08-30T11:46:42.352Z,5.10
2022-08-30T11:49:46.394Z,4.50
2022-08-30T11:52:42.153Z,5.07
2022-08-30T11:55:45.264Z,5.32
2022-08-30T11:58:44.084Z,5.20
2022-08-30T12:01:51.134Z,4.93
2022-08-30T12:04:47.525Z,5.10
2022-08-30T12:07:59.487Z,5.45
2022-08-30T12:10:47.367Z,5.00
2022-08-30T12:13:58.645Z,5.28
2022-08-30T12:16:59.812Z,5.30
2022-08-30T12:19:50.321Z,5.53
2022-08-30T12:22:37.970Z,5.50
2022-08-30T12:25:27.883Z,5.53
2022-08-30T12:28:18.425Z,5.90
2022-08-30T12:31:11.043Z,5.43
2022-08-30T12:33:58.816Z,4.97
2022-08-30T12:36:53.753Z,5.55
2022-08-30T12:39:40.338Z,5.75
2022-08-30T12:42:29.319Z,5.68
2022-08-30T12:45:17.211Z,5.57
2022-08-30T12:48:04.523Z,6.45
2022-08-30T12:50:52.098Z,5.72
2022-08-30T12:53:41.843Z,6.78
2022-08-30T12:56:56.526Z,6.10
2022-08-30T12:59:54.210Z,7.18
2022-08-30T13:02:52.406Z,6.65
2022-08-30T13:05:46.816Z,7.13
2022-08-30T13:08:37.036Z,5.88
2022-08-30T13:11:29.661Z,7.65
2022-08-30T13:14:31.315Z,6.65
2022-08-30T13:17:24.557Z,7.13
2022-08-30T13:20:27.349Z,6.10
2022-08-30T13:23:12.203Z,7.53
2022-08-30T13:25:56.024Z,6.00
2022-08-30T13:28:51.607Z,6.22
2022-08-30T13:31:37.189Z,5.97
2022-08-30T13:34:22.649Z,7.15
2022-08-30T13:37:44.332Z,5.47
2022-08-30T13:40:16.022Z,5.72
2022-08-30T13:43:00.406Z,4.97
2022-08-30T13:45:44.303Z,5.90
2022-08-30T13:48:28.407Z,5.85
2022-08-30T13:51:12.684Z,5.32
2022-08-30T13:53:58.215Z,5.93
2022-08-30T13:56:42.313Z,5.28
2022-08-30T13:59:26.818Z,4.72
2022-08-30T14:02:11.605Z,5.85
2022-08-30T14:04:58.682Z,5.03
2022-08-30T14:07:46.996Z,4.97
2022-08-30T14:10:36.448Z,5.53
2022-08-30T14:13:29.125Z,5.78
2022-08-30T14:16:28.749Z,5.20
2022-08-30T14:19:14.118Z,5.65
2022-08-30T14:21:58.003Z,5.60
2022-08-30T14:24:41.846Z,5.22
2022-08-30T14:27:27.205Z,5.43
2022-08-30T14:30:12.234Z,5.47
2022-08-30T14:32:56.216Z,5.53
2022-08-30T14:35:40.134Z,5.18
2022-08-30T14:38:24.049Z,5.30
2022-08-30T14:41:08.533Z,7.18
2022-08-30T14:43:54.808Z,4.45
2022-08-30T14:46:38.868Z,4.63
2022-08-30T14:49:25.290Z,5.60
2022-08-30T14:52:10.553Z,5.70
2022-08-30T14:54:58.598Z,5.75
2022-08-30T14:57:44.130Z,6.47
2022-08-30T15:00:29.509Z,5.57
2022-08-30T15:03:13.534Z,5.65
2022-08-30T15:05:57.447Z,5.78
2022-08-30T15:08:41.576Z,5.68
2022-08-30T15:11:26.905Z,5.70
2022-08-30T15:14:16.210Z,5.75
2022-08-30T15:17:03.441Z,5.05
2022-08-30T15:19:47.292Z,5.15
2022-08-30T15:22:32.129Z,4.95
2022-08-30T15:25:18.528Z,5.55
2022-08-30T15:28:02.498Z,5.43
2022-08-30T15:30:47.293Z,5.35
2022-08-30T15:33:32.996Z,5.80
2022-08-30T15:36:18.456Z,5.53
2022-08-30T15:39:02.351Z,5.55
2022-08-30T15:41:54.686Z,4.80
2022-08-30T15:44:41.144Z,6.22
2022-08-30T15:47:25.367Z,5.68
2022-08-30T15:50:11.291Z,5.82
2022-08-30T15:52:55.231Z,5.32
2022-08-30T15:55:39.103Z,5.07
2022-08-30T15:58:23.176Z,5.53
2022-08-30T16:01:07.462Z,4.90
2022-08-30T16:03:51.455Z,5.82
2022-08-30T16:06:38.212Z,6.07
2022-08-30T16:09:22.844Z,5.63
2022-08-30T16:12:08.064Z,6.28
2022-08-30T16:14:53.953Z,5.60
2022-08-30T16:17:37.784Z,6.20
2022-08-30T16:20:23.283Z,5.68
2022-08-30T16:23:08.579Z,5.85
2022-08-30T16:25:52.400Z,6.38
2022-08-30T16:28:38.063Z,5.70
2022-08-30T16:31:23.967Z,5.65
2022-08-30T16:34:08.142Z,5.90
2022-08-30T16:36:51.935Z,6.45
2022-08-30T16:39:37.173Z,6.25
2022-08-30T16:42:21.499Z,6.32
2022-08-30T16:45:10.320Z,7.18
2022-08-30T16:47:54.989Z,5.95
2022-08-30T16:50:41.140Z,7.40
2022-08-30T16:53:26.260Z,6.75
2022-08-30T16:56:14.002Z,5.40
2022-08-30T16:59:02.002Z,6.55
2022-08-30T17:01:46.346Z,6.85
2022-08-30T17:04:32.296Z,10.23
2022-08-30T17:07:20.942Z,21.63
2022-08-30T17:10:06.968Z,10.25
2022-08-30T17:12:54.173Z,7.07
2022-08-30T17:15:38.204Z,7.25
2022-08-30T17:18:23.702Z,6.82
2022-08-30T17:21:07.636Z,6.68
2022-08-30T17:23:52.248Z,5.95
2022-08-30T17:26:39.921Z,8.60
2022-08-30T17:29:25.052Z,8.05
2022-08-30T17:32:09.735Z,11.75
2022-08-30T17:34:53.773Z,19.00
2022-08-30T17:37:37.641Z,9.38
2022-08-30T17:40:21.859Z,6.15
2022-08-30T17:43:05.910Z,6.25
2022-08-30T17:45:51.544Z,7.05
2022-08-30T17:48:36.010Z,6.32
2022-08-30T17:51:20.849Z,6.88
2022-08-30T17:54:06.196Z,8.75
2022-08-30T17:56:50.163Z,7.68
2022-08-30T17:59:36.164Z,9.93
2022-08-30T18:02:22.832Z,7.90
2022-08-30T18:05:12.309Z,6.78
2022-08-30T18:07:56.220Z,7.15
2022-08-30T18:10:40.232Z,7.57
2022-08-30T18:13:24.128Z,7.65
2022-08-30T18:16:08.827Z,7.78
2022-08-30T18:18:57.695Z,8.63
2022-08-30T18:21:41.673Z,7.43
2022-08-30T18:24:26.172Z,8.32
2022-08-30T18:27:10.558Z,8.05
2022-08-30T18:29:54.479Z,7.85
2022-08-30T18:32:39.257Z,7.78
2022-08-30T18:35:24.468Z,8.23
2022-08-30T18:38:09.087Z,6.82
2022-08-30T18:41:01.429Z,7.63
2022-08-30T18:43:45.924Z,8.52
2022-08-30T18:46:30.460Z,7.85
2022-08-30T18:49:16.488Z,7.82
2022-08-30T18:52:02.833Z,8.30
2022-08-30T18:54:53.042Z,9.15
2022-08-30T18:57:37.297Z,7.90
2022-08-30T19:00:21.410Z,7.53
2022-08-30T19:03:05.703Z,8.05
2022-08-30T19:05:49.610Z,8.13
2022-08-30T19:08:35.643Z,9.23
2022-08-30T19:11:19.516Z,7.30
2022-08-30T19:14:03.370Z,8.10
2022-08-30T19:16:47.205Z,7.80
2022-08-30T19:19:31.156Z,8.10
2022-08-30T19:22:15.542Z,7.20
2022-08-30T19:25:01.053Z,7.95
2022-08-30T19:27:47.917Z,7.30
2022-08-30T19:30:35.576Z,7.68
2022-08-30T19:33:19.935Z,8.15
2022-08-30T19:36:05.179Z,7.55
2022-08-30T19:38:49.433Z,8.00
2022-08-30T19:41:35.520Z,7.65
2022-08-30T19:44:19.778Z,7.97
2022-08-30T19:47:05.397Z,7.75
2022-08-30T19:49:49.535Z,7.72
2022-08-30T19:52:36.089Z,7.63
2022-08-30T19:55:23.819Z,9.27
2022-08-30T19:58:14.450Z,10.23
2022-08-30T20:01:00.996Z,8.88
2022-08-30T20:03:57.388Z,9.13
2022-08-30T20:06:43.105Z,9.18
2022-08-30T20:09:27.952Z,9.05
2022-08-30T20:12:12.052Z,9.02
2022-08-30T20:14:57.588Z,11.30
2022-08-30T20:18:02.516Z,8.30
2022-08-30T20:20:49.535Z,9.95
2022-08-30T20:23:35.581Z,12.00
2022-08-30T20:26:19.767Z,9.85
2022-08-30T20:29:04.510Z,9.48
2022-08-30T20:31:50.253Z,9.10
2022-08-30T20:34:34.463Z,10.40
2022-08-30T20:37:19.745Z,12.75
2022-08-30T20:40:05.907Z,10.93
2022-08-30T20:42:50.041Z,10.65
2022-08-30T20:45:35.154Z,9.80
2022-08-30T20:48:21.064Z,10.10
2022-08-30T20:51:08.380Z,9.65
2022-08-30T20:53:52.584Z,10.25
2022-08-30T20:56:37.620Z,9.15
2022-08-30T20:59:21.757Z,9.90
2022-08-30T21:02:06.644Z,8.35
2022-08-30T21:04:53.166Z,8.60
2022-08-30T21:07:37.646Z,9.85
2022-08-30T21:10:23.485Z,9.88
2022-08-30T21:13:08.193Z,10.45
2022-08-30T21:15:54.824Z,9.55
2022-08-30T21:18:39.467Z,10.95
2022-08-30T21:21:26.771Z,9.40
2022-08-30T21:24:11.057Z,8.43
2022-08-30T21:26:55.854Z,9.30
2022-08-30T21:29:39.785Z,8.80
2022-08-30T21:32:23.613Z,8.38
2022-08-30T21:35:26.450Z,8.48
2022-08-30T21:38:12.204Z,8.40
2022-08-30T21:40:56.292Z,7.45
2022-08-30T21:43:40.240Z,6.75
2022-08-30T21:46:24.123Z,6.70
2022-08-30T21:49:10.519Z,6.60
2022-08-30T21:51:55.466Z,7.03
2022-08-30T21:54:40.731Z,6.38
2022-08-30T21:57:24.886Z,7.32
2022-08-30T22:00:10.415Z,6.10
2022-08-30T22:02:54.627Z,6.70
2022-08-30T22:05:38.542Z,5.70
2022-08-30T22:08:22.455Z,5.45
2022-08-30T22:11:09.319Z,5.90
2022-08-30T22:13:54.623Z,5.40
2022-08-30T22:16:39.902Z,4.72
2022-08-30T22:19:23.899Z,5.78
2022-08-30T22:22:07.855Z,5.10
2022-08-30T22:24:51.601Z,5.45
2022-08-30T22:27:36.853Z,5.28
2022-08-30T22:30:20.894Z,6.25
2022-08-30T22:33:05.093Z,7.13
2022-08-30T22:35:48.959Z,6.35
2022-08-30T22:38:32.843Z,7.55
2022-08-30T22:41:18.675Z,5.80
2022-08-30T22:44:07.007Z,5.25
2022-08-30T22:46:50.850Z,5.03
2022-08-30T22:49:34.688Z,6.68
2022-08-30T22:52:18.547Z,6.05
2022-08-30T22:55:09.261Z,5.07
2022-08-30T22:57:54.525Z,5.20
2022-08-30T23:00:42.907Z,4.93
2022-08-30T23:03:38.540Z,5.63
2022-08-30T23:06:23.055Z,5.47
2022-08-30T23:09:08.181Z,6.57
2022-08-30T23:11:55.275Z,5.43
2022-08-30T23:14:39.182Z,5.97
2022-08-30T23:17:24.564Z,6.60
2022-08-30T23:20:09.685Z,7.65
2022-08-30T23:22:58.058Z,7.72
2022-08-30T23:25:58.894Z,9.93
2022-08-30T23:28:59.804Z,9.75
2022-08-30T23:32:01.307Z,10.90
2022-08-30T23:35:04.519Z,12.48
2022-08-30T23:38:05.946Z,11.30
2022-08-30T23:41:07.286Z,12.65
2022-08-30T23:44:08.733Z,19.67
2022-08-30T23:47:10.263Z,21.20
2022-08-30T23:50:13.648Z,21.02
2022-08-30T23:53:14.645Z,16.13
2022-08-30T23:56:16.072Z,18.67
2022-08-30T23:59:17.426Z,12.13
